WetterOnline ( https://www.wetteronline.de )

Wetter aktuell Mittelndorf

Aktuelles Wetter: Lichtenhain/Mittelndorf (352m)

6-stündlich | Neueste Meldungen
Ortszeit Temperatur Wetter
Do, 22.02. 13:00 8.2° C bedeckt
Do, 22.02. 7:00 6.3° C leichter Regen
Do, 22.02. 1:00 7.8° C bedeckt
Mi, 21.02. 19:00 9.2° C bedeckt
Mi, 21.02. 13:00 7.6° C bedeckt
Mi, 21.02. 7:00 5.3° C wolkig
Mi, 21.02. 1:00 6.0° C bedeckt
Di, 20.02. 19:00 5.9° C bedeckt
Ortszeit Temperatur Wetter
Do, 22.02. 14:30 8.8° C bedeckt
Do, 22.02. 14:20 8.8° C bedeckt
Do, 22.02. 14:10 8.8° C bedeckt
Do, 22.02. 14:00 8.8° C bedeckt
Do, 22.02. 13:50 8.8° C bedeckt
Do, 22.02. 13:40 8.7° C bedeckt
Do, 22.02. 13:30 8.4° C bedeckt
Do, 22.02. 13:00 8.2° C bedeckt
Do, 22.02. 12:30 7.9° C bedeckt
Do, 22.02. 12:00 7.5° C leichter Regen
Do, 22.02. 11:30 7.5° C leichter Regen
Ortszeit Relative Feuchte Sichtweite
Do, 22.02. 13:00 88% 45 km
Do, 22.02. 7:00 85% 25 km
Do, 22.02. 1:00 67% 45 km
Mi, 21.02. 19:00 59% 55 km
Mi, 21.02. 13:00 76% 30 km
Mi, 21.02. 7:00 81% 30 km
Mi, 21.02. 1:00 79% 30 km
Di, 20.02. 19:00 79% 28 km
Ortszeit Relative Feuchte Sichtweite
Do, 22.02. 14:30 86% 60 km
Do, 22.02. 14:20 86% -
Do, 22.02. 14:10 86% -
Do, 22.02. 14:00 86% 40 km
Do, 22.02. 13:50 86% -
Do, 22.02. 13:40 86% -
Do, 22.02. 13:30 87% 45 km
Do, 22.02. 13:00 88% 45 km
Do, 22.02. 12:30 88% 45 km
Do, 22.02. 12:00 90% 30 km
Do, 22.02. 11:30 88% 26 km
Ortszeit Niederschlagsmenge Niederschlagsart
Do, 22.02. 13:00 3 l/m2 in 6 Std. Regen
Do, 22.02. 7:00 0.8 l/m2 in 12 Std. Regen
Do, 22.02. 1:00 0.0 l/m2 in 6 Std. -
Mi, 21.02. 19:00 0.1 l/m2 in 12 Std. -
Mi, 21.02. 13:00 0.1 l/m2 in 6 Std. Regen
Mi, 21.02. 7:00 0.2 l/m2 in 12 Std. Regen
Mi, 21.02. 1:00 0.2 l/m2 in 6 Std. Regen
Di, 20.02. 19:00 0.8 l/m2 in 12 Std. Regen
Ortszeit Niederschlagsmenge Niederschlagsart
Do, 22.02. 14:30 0.0 l/m2 in 30 Min -
Do, 22.02. 14:20 keine Meldung -
Do, 22.02. 14:10 keine Meldung -
Do, 22.02. 14:00 <0.05 l/m2 in 1 Std. Regen
Do, 22.02. 13:50 keine Meldung -
Do, 22.02. 13:40 keine Meldung -
Do, 22.02. 13:30 <0.05 l/m2 in 30 Min Schneeregen
Do, 22.02. 13:00 <0.05 l/m2 in 1 Std. Regen
Do, 22.02. 12:30 <0.05 l/m2 in 30 Min Schneeregen
Do, 22.02. 12:00 0.6 l/m2 in 1 Std. Regen
Do, 22.02. 11:30 0.3 l/m2 in 30 Min -
Ortszeit Stärke Spitze Richtung
km/h Bft. km/h Grad Sektor
Do, 22.02. 13:00 28 4 50 170° S
Do, 22.02. 7:00 24 4 65 170° S
Do, 22.02. 1:00 22 4 32 150° SO
Mi, 21.02. 19:00 20 4 35 180° S
Mi, 21.02. 13:00 9 2 35 270° W
Mi, 21.02. 7:00 11 2 18 180° S
Mi, 21.02. 1:00 11 2 22 240° SW
Di, 20.02. 19:00 11 2 40 260° W
Ortszeit Stärke Spitze Richtung
km/h Bft. km/h Grad Sektor
Do, 22.02. 14:30 25 4 40 170° S
Do, 22.02. 14:20 25 4 - 170° S
Do, 22.02. 14:10 26 4 - 170° S
Do, 22.02. 14:00 25 4 43 170° S
Do, 22.02. 13:50 25 4 - 170° S
Do, 22.02. 13:40 24 4 - 170° S
Do, 22.02. 13:30 24 4 43 170° S
Do, 22.02. 13:00 28 4 50 170° S
Do, 22.02. 12:30 28 4 50 170° S
Do, 22.02. 12:00 26 4 44 170° S
Do, 22.02. 11:30 25 4 47 170° S
Ortszeit Untergrenze Bedeckung Gattung
total tief tief mittel hoch
Do, 22.02. 13:00 960 m 8/8 8/8 - - -
Do, 22.02. 7:00 30 m 7/8 7/8 - - -
Do, 22.02. 1:00 2100 m 8/8 8/8 - - -
Mi, 21.02. 19:00 6000 m 8/8 8/8 - - -
Mi, 21.02. 13:00 690 m 8/8 8/8 - - -
Mi, 21.02. 7:00 720 m 6/8 6/8 - - -
Mi, 21.02. 1:00 1800 m 8/8 8/8 - - -
Di, 20.02. 19:00 1260 m 8/8 8/8 - - -
Ortszeit Bedeckungsgrad in Achtel und Wolkenuntergrenze
Do, 22.02. 14:30 4(510m) 8(960m)
Do, 22.02. 14:20 4(510m) 8(960m)
Do, 22.02. 14:10 8
Do, 22.02. 14:00 8(990m)
Do, 22.02. 13:50 8(990m)
Do, 22.02. 13:40 8
Do, 22.02. 13:30 8(930m)
Do, 22.02. 13:00 8(960m)
Do, 22.02. 12:30 8(990m) 8(1500m)
Do, 22.02. 12:00 8(960m)
Do, 22.02. 11:30 8(960m)
Ortszeit Luftdruck NN (hPa) Tendenz (hPa in 3 Std.)
Do, 22.02. 13:00 998 - 2,3
Do, 22.02. 7:00 1003 - 3,2
Do, 22.02. 1:00 1010 - 1,7
Mi, 21.02. 19:00 1014 - 2,0
Mi, 21.02. 13:00 1019 - 1,0
Mi, 21.02. 7:00 1022 - 0,9
Mi, 21.02. 1:00 1024 - 1,0
Di, 20.02. 19:00 1026 + 0,6
Ortszeit Luftdruck NN (hPa) Tendenz (hPa in 3 Std.)
Do, 22.02. 14:30 996 - 3,2
Do, 22.02. 14:20 996 keine Meldung
Do, 22.02. 14:10 996 keine Meldung
Do, 22.02. 14:00 997 - 2,9
Do, 22.02. 13:50 997 keine Meldung
Do, 22.02. 13:40 997 keine Meldung
Do, 22.02. 13:30 997 - 2,4
Do, 22.02. 13:00 998 - 2,3
Do, 22.02. 12:30 998 - 2,5
Do, 22.02. 12:00 999 - 1,9
Do, 22.02. 11:30 999 - 1,8
Ortszeit Schneehöhe (cm)
Do, 22.02. 13:00 0
Do, 22.02. 7:00 0
Do, 22.02. 1:00 0
Mi, 21.02. 19:00 0
Mi, 21.02. 13:00 0
Mi, 21.02. 7:00 0
Mi, 21.02. 1:00 0
Di, 20.02. 19:00 0
Ortszeit Schneehöhe (cm)
Do, 22.02. 14:30 0
Do, 22.02. 14:20 0
Do, 22.02. 14:10 -
Do, 22.02. 14:00 0
Do, 22.02. 13:50 0
Do, 22.02. 13:40 -
Do, 22.02. 13:30 0
Do, 22.02. 13:00 0
Do, 22.02. 12:30 0
Do, 22.02. 12:00 0
Do, 22.02. 11:30 0
Link zu dieser Seite / Seite empfehlen

Das Wetter in ...